sensor_id;sensor_type;location;lat;lon;timestamp;temperature;humidity
29431;DHT22;16404;49.902;10.074;2023-01-08T00:00:33;9.00;67.40
29431;DHT22;16404;49.902;10.074;2023-01-08T00:03:18;9.00;67.30
29431;DHT22;16404;49.902;10.074;2023-01-08T00:06:08;9.00;67.30
29431;DHT22;16404;49.902;10.074;2023-01-08T00:08:52;9.00;67.30
29431;DHT22;16404;49.902;10.074;2023-01-08T00:11:37;9.00;67.20
29431;DHT22;16404;49.902;10.074;2023-01-08T00:14:22;9.10;67.20
29431;DHT22;16404;49.902;10.074;2023-01-08T00:17:06;9.00;67.20
29431;DHT22;16404;49.902;10.074;2023-01-08T00:19:51;9.10;67.30
29431;DHT22;16404;49.902;10.074;2023-01-08T00:22:35;9.20;67.20
29431;DHT22;16404;49.902;10.074;2023-01-08T00:25:20;9.20;67.00
29431;DHT22;16404;49.902;10.074;2023-01-08T00:28:05;9.20;67.10
29431;DHT22;16404;49.902;10.074;2023-01-08T00:30:49;9.20;67.10
29431;DHT22;16404;49.902;10.074;2023-01-08T00:33:34;9.20;67.20
29431;DHT22;16404;49.902;10.074;2023-01-08T00:36:19;9.20;67.30
29431;DHT22;16404;49.902;10.074;2023-01-08T00:39:03;9.20;67.40
29431;DHT22;16404;49.902;10.074;2023-01-08T00:41:48;9.20;67.50
29431;DHT22;16404;49.902;10.074;2023-01-08T00:44:33;9.20;67.60
29431;DHT22;16404;49.902;10.074;2023-01-08T00:47:17;9.30;67.60
29431;DHT22;16404;49.902;10.074;2023-01-08T00:50:03;9.30;67.60
29431;DHT22;16404;49.902;10.074;2023-01-08T00:52:47;9.40;67.60
29431;DHT22;16404;49.902;10.074;2023-01-08T00:55:32;9.40;67.60
29431;DHT22;16404;49.902;10.074;2023-01-08T00:58:16;9.40;67.50
29431;DHT22;16404;49.902;10.074;2023-01-08T01:01:01;9.50;67.40
29431;DHT22;16404;49.902;10.074;2023-01-08T01:03:52;9.50;67.40
29431;DHT22;16404;49.902;10.074;2023-01-08T01:06:36;9.60;67.40
29431;DHT22;16404;49.902;10.074;2023-01-08T01:09:21;9.60;67.40
29431;DHT22;16404;49.902;10.074;2023-01-08T01:12:06;9.60;67.30
29431;DHT22;16404;49.902;10.074;2023-01-08T01:14:50;9.60;67.20
29431;DHT22;16404;49.902;10.074;2023-01-08T01:17:37;9.60;67.10
29431;DHT22;16404;49.902;10.074;2023-01-08T01:20:22;9.60;67.00
29431;DHT22;16404;49.902;10.074;2023-01-08T01:23:06;9.60;66.80
29431;DHT22;16404;49.902;10.074;2023-01-08T01:25:51;9.60;66.80
29431;DHT22;16404;49.902;10.074;2023-01-08T01:28:37;9.70;66.70
29431;DHT22;16404;49.902;10.074;2023-01-08T01:31:23;9.70;66.70
29431;DHT22;16404;49.902;10.074;2023-01-08T01:34:09;9.70;66.60
29431;DHT22;16404;49.902;10.074;2023-01-08T01:36:54;9.70;66.60
29431;DHT22;16404;49.902;10.074;2023-01-08T01:39:39;9.70;66.40
29431;DHT22;16404;49.902;10.074;2023-01-08T01:42:23;9.60;66.40
29431;DHT22;16404;49.902;10.074;2023-01-08T01:45:25;9.60;66.30
29431;DHT22;16404;49.902;10.074;2023-01-08T01:48:14;9.60;66.40
29431;DHT22;16404;49.902;10.074;2023-01-08T01:51:00;9.60;66.30
29431;DHT22;16404;49.902;10.074;2023-01-08T01:53:44;9.60;66.30
29431;DHT22;16404;49.902;10.074;2023-01-08T01:56:31;9.60;66.90
29431;DHT22;16404;49.902;10.074;2023-01-08T01:59:15;9.60;66.30
29431;DHT22;16404;49.902;10.074;2023-01-08T02:02:00;9.60;66.20
29431;DHT22;16404;49.902;10.074;2023-01-08T02:04:45;9.60;66.20
29431;DHT22;16404;49.902;10.074;2023-01-08T02:07:46;9.60;66.30
29431;DHT22;16404;49.902;10.074;2023-01-08T02:10:50;9.60;66.60
29431;DHT22;16404;49.902;10.074;2023-01-08T02:13:39;9.50;66.60
29431;DHT22;16404;49.902;10.074;2023-01-08T02:16:49;9.60;66.50
29431;DHT22;16404;49.902;10.074;2023-01-08T02:19:45;9.60;66.50
29431;DHT22;16404;49.902;10.074;2023-01-08T02:23:22;9.60;66.40
29431;DHT22;16404;49.902;10.074;2023-01-08T02:29:14;9.60;66.30
29431;DHT22;16404;49.902;10.074;2023-01-08T02:31:59;9.60;66.30
29431;DHT22;16404;49.902;10.074;2023-01-08T02:34:45;9.70;66.40
29431;DHT22;16404;49.902;10.074;2023-01-08T02:37:29;9.60;66.30
29431;DHT22;16404;49.902;10.074;2023-01-08T02:40:23;9.60;66.40
29431;DHT22;16404;49.902;10.074;2023-01-08T02:46:22;9.60;66.70
29431;DHT22;16404;49.902;10.074;2023-01-08T02:49:10;9.60;66.60
29431;DHT22;16404;49.902;10.074;2023-01-08T02:51:56;9.60;66.70
29431;DHT22;16404;49.902;10.074;2023-01-08T02:54:45;9.60;66.80
29431;DHT22;16404;49.902;10.074;2023-01-08T02:57:31;9.60;66.80
29431;DHT22;16404;49.902;10.074;2023-01-08T03:00:17;9.60;66.80
29431;DHT22;16404;49.902;10.074;2023-01-08T03:03:15;9.70;66.90
29431;DHT22;16404;49.902;10.074;2023-01-08T03:06:03;9.70;67.00
29431;DHT22;16404;49.902;10.074;2023-01-08T03:08:50;9.80;66.70
29431;DHT22;16404;49.902;10.074;2023-01-08T03:11:50;9.80;66.60
29431;DHT22;16404;49.902;10.074;2023-01-08T03:14:51;9.80;66.70
29431;DHT22;16404;49.902;10.074;2023-01-08T03:17:45;9.80;66.80
29431;DHT22;16404;49.902;10.074;2023-01-08T03:20:32;9.90;66.80
29431;DHT22;16404;49.902;10.074;2023-01-08T03:23:20;9.90;66.80
29431;DHT22;16404;49.902;10.074;2023-01-08T03:26:06;9.90;67.50
29431;DHT22;16404;49.902;10.074;2023-01-08T03:28:52;9.90;66.70
29431;DHT22;16404;49.902;10.074;2023-01-08T03:31:38;9.90;66.80
29431;DHT22;16404;49.902;10.074;2023-01-08T03:34:24;9.90;66.80
29431;DHT22;16404;49.902;10.074;2023-01-08T03:37:11;10.00;66.80
29431;DHT22;16404;49.902;10.074;2023-01-08T03:42:47;10.10;66.70
29431;DHT22;16404;49.902;10.074;2023-01-08T03:45:32;10.10;66.60
29431;DHT22;16404;49.902;10.074;2023-01-08T03:48:18;10.10;66.60
29431;DHT22;16404;49.902;10.074;2023-01-08T03:51:07;10.10;66.60
29431;DHT22;16404;49.902;10.074;2023-01-08T03:53:56;10.20;66.50
29431;DHT22;16404;49.902;10.074;2023-01-08T03:56:42;10.20;66.40
29431;DHT22;16404;49.902;10.074;2023-01-08T03:59:26;10.20;66.50
29431;DHT22;16404;49.902;10.074;2023-01-08T04:02:11;10.20;66.50
29431;DHT22;16404;49.902;10.074;2023-01-08T04:04:55;10.20;66.50
29431;DHT22;16404;49.902;10.074;2023-01-08T04:07:40;10.20;66.50
29431;DHT22;16404;49.902;10.074;2023-01-08T04:10:25;10.20;66.30
29431;DHT22;16404;49.902;10.074;2023-01-08T04:13:09;10.30;66.30
29431;DHT22;16404;49.902;10.074;2023-01-08T04:15:54;10.30;66.20
29431;DHT22;16404;49.902;10.074;2023-01-08T04:18:39;10.30;66.20
29431;DHT22;16404;49.902;10.074;2023-01-08T04:21:23;10.30;66.10
29431;DHT22;16404;49.902;10.074;2023-01-08T04:24:08;10.30;66.10
29431;DHT22;16404;49.902;10.074;2023-01-08T04:26:54;10.30;66.10
29431;DHT22;16404;49.902;10.074;2023-01-08T04:29:38;10.30;66.00
29431;DHT22;16404;49.902;10.074;2023-01-08T04:32:23;10.30;66.00
29431;DHT22;16404;49.902;10.074;2023-01-08T04:35:08;10.30;66.10
29431;DHT22;16404;49.902;10.074;2023-01-08T04:37:53;10.30;66.00
29431;DHT22;16404;49.902;10.074;2023-01-08T04:40:37;10.40;66.00
29431;DHT22;16404;49.902;10.074;2023-01-08T04:43:22;10.40;66.00
29431;DHT22;16404;49.902;10.074;2023-01-08T04:46:06;10.40;66.00
29431;DHT22;16404;49.902;10.074;2023-01-08T04:48:51;10.30;66.00
29431;DHT22;16404;49.902;10.074;2023-01-08T04:51:35;10.40;66.10
29431;DHT22;16404;49.902;10.074;2023-01-08T04:54:20;10.40;66.00
29431;DHT22;16404;49.902;10.074;2023-01-08T04:57:05;10.40;66.00
29431;DHT22;16404;49.902;10.074;2023-01-08T04:59:49;10.30;66.00
29431;DHT22;16404;49.902;10.074;2023-01-08T05:02:34;10.30;66.00
29431;DHT22;16404;49.902;10.074;2023-01-08T05:05:19;10.40;66.10
29431;DHT22;16404;49.902;10.074;2023-01-08T05:08:03;10.40;66.10
29431;DHT22;16404;49.902;10.074;2023-01-08T05:10:48;10.40;66.00
29431;DHT22;16404;49.902;10.074;2023-01-08T05:13:32;10.40;66.00
29431;DHT22;16404;49.902;10.074;2023-01-08T05:16:17;10.40;66.00
29431;DHT22;16404;49.902;10.074;2023-01-08T05:19:02;10.40;66.00
29431;DHT22;16404;49.902;10.074;2023-01-08T05:21:46;10.40;65.90
29431;DHT22;16404;49.902;10.074;2023-01-08T05:24:31;10.50;65.90
29431;DHT22;16404;49.902;10.074;2023-01-08T05:27:15;10.50;65.90
29431;DHT22;16404;49.902;10.074;2023-01-08T05:30:00;10.50;65.80
29431;DHT22;16404;49.902;10.074;2023-01-08T05:32:44;10.50;65.90
29431;DHT22;16404;49.902;10.074;2023-01-08T05:35:29;10.50;65.80
29431;DHT22;16404;49.902;10.074;2023-01-08T05:38:13;10.50;65.70
29431;DHT22;16404;49.902;10.074;2023-01-08T05:40:58;10.60;65.70
29431;DHT22;16404;49.902;10.074;2023-01-08T05:43:43;10.60;65.80
29431;DHT22;16404;49.902;10.074;2023-01-08T05:46:27;10.50;65.70
29431;DHT22;16404;49.902;10.074;2023-01-08T05:49:12;10.60;65.80
29431;DHT22;16404;49.902;10.074;2023-01-08T05:51:56;10.50;65.70
29431;DHT22;16404;49.902;10.074;2023-01-08T05:54:41;10.50;65.70
29431;DHT22;16404;49.902;10.074;2023-01-08T05:57:26;10.50;65.80
29431;DHT22;16404;49.902;10.074;2023-01-08T06:00:11;10.60;65.70
29431;DHT22;16404;49.902;10.074;2023-01-08T06:02:55;10.60;65.60
29431;DHT22;16404;49.902;10.074;2023-01-08T06:05:40;10.70;65.40
29431;DHT22;16404;49.902;10.074;2023-01-08T06:08:24;10.70;65.10
29431;DHT22;16404;49.902;10.074;2023-01-08T06:11:10;10.70;65.30
29431;DHT22;16404;49.902;10.074;2023-01-08T06:13:55;10.70;65.40
29431;DHT22;16404;49.902;10.074;2023-01-08T06:16:39;10.70;65.50
29431;DHT22;16404;49.902;10.074;2023-01-08T06:19:24;10.70;65.70
29431;DHT22;16404;49.902;10.074;2023-01-08T06:22:08;10.70;65.70
29431;DHT22;16404;49.902;10.074;2023-01-08T06:24:53;10.70;65.70
29431;DHT22;16404;49.902;10.074;2023-01-08T06:27:37;10.70;65.80
29431;DHT22;16404;49.902;10.074;2023-01-08T06:30:22;10.70;65.80
29431;DHT22;16404;49.902;10.074;2023-01-08T06:33:07;10.80;66.00
29431;DHT22;16404;49.902;10.074;2023-01-08T06:35:51;10.80;66.10
29431;DHT22;16404;49.902;10.074;2023-01-08T06:38:36;10.70;66.20
29431;DHT22;16404;49.902;10.074;2023-01-08T06:41:21;10.70;66.20
29431;DHT22;16404;49.902;10.074;2023-01-08T06:44:05;10.80;66.30
29431;DHT22;16404;49.902;10.074;2023-01-08T06:46:50;10.90;66.20
29431;DHT22;16404;49.902;10.074;2023-01-08T06:49:34;10.80;65.90
29431;DHT22;16404;49.902;10.074;2023-01-08T06:52:19;10.80;66.20
29431;DHT22;16404;49.902;10.074;2023-01-08T06:55:04;10.70;66.30
29431;DHT22;16404;49.902;10.074;2023-01-08T06:57:56;10.70;66.50
29431;DHT22;16404;49.902;10.074;2023-01-08T07:00:42;10.70;66.80
29431;DHT22;16404;49.902;10.074;2023-01-08T07:03:26;10.60;66.70
29431;DHT22;16404;49.902;10.074;2023-01-08T07:06:16;10.60;66.80
29431;DHT22;16404;49.902;10.074;2023-01-08T07:09:01;10.60;67.00
29431;DHT22;16404;49.902;10.074;2023-01-08T07:11:45;10.70;67.00
29431;DHT22;16404;49.902;10.074;2023-01-08T07:14:30;10.70;67.00
29431;DHT22;16404;49.902;10.074;2023-01-08T07:17:14;10.70;67.00
29431;DHT22;16404;49.902;10.074;2023-01-08T07:19:59;10.70;66.90
29431;DHT22;16404;49.902;10.074;2023-01-08T07:22:43;10.70;67.10
29431;DHT22;16404;49.902;10.074;2023-01-08T07:25:28;10.70;67.10
29431;DHT22;16404;49.902;10.074;2023-01-08T07:28:13;10.70;67.20
29431;DHT22;16404;49.902;10.074;2023-01-08T07:31:02;10.70;67.10
29431;DHT22;16404;49.902;10.074;2023-01-08T07:33:46;10.80;67.30
29431;DHT22;16404;49.902;10.074;2023-01-08T07:36:31;10.80;67.20
29431;DHT22;16404;49.902;10.074;2023-01-08T07:39:15;10.80;67.20
29431;DHT22;16404;49.902;10.074;2023-01-08T07:42:00;10.80;67.10
29431;DHT22;16404;49.902;10.074;2023-01-08T07:44:45;10.80;67.10
29431;DHT22;16404;49.902;10.074;2023-01-08T07:47:29;10.80;67.10
29431;DHT22;16404;49.902;10.074;2023-01-08T07:50:14;10.90;67.20
29431;DHT22;16404;49.902;10.074;2023-01-08T07:52:59;10.90;67.20
29431;DHT22;16404;49.902;10.074;2023-01-08T07:55:44;10.90;67.30
29431;DHT22;16404;49.902;10.074;2023-01-08T07:58:28;10.90;67.40
29431;DHT22;16404;49.902;10.074;2023-01-08T08:01:13;10.90;67.40
29431;DHT22;16404;49.902;10.074;2023-01-08T08:03:58;10.90;67.40
29431;DHT22;16404;49.902;10.074;2023-01-08T08:06:42;10.90;67.50
29431;DHT22;16404;49.902;10.074;2023-01-08T08:09:27;10.90;67.50
29431;DHT22;16404;49.902;10.074;2023-01-08T08:12:11;11.00;67.50
29431;DHT22;16404;49.902;10.074;2023-01-08T08:14:57;11.00;67.70
29431;DHT22;16404;49.902;10.074;2023-01-08T08:17:46;10.90;67.60
29431;DHT22;16404;49.902;10.074;2023-01-08T08:20:31;10.90;67.70
29431;DHT22;16404;49.902;10.074;2023-01-08T08:23:15;10.90;67.70
29431;DHT22;16404;49.902;10.074;2023-01-08T08:26:02;10.90;67.80
29431;DHT22;16404;49.902;10.074;2023-01-08T08:28:47;10.90;67.90
29431;DHT22;16404;49.902;10.074;2023-01-08T08:31:32;10.90;68.00
29431;DHT22;16404;49.902;10.074;2023-01-08T08:34:20;10.90;68.00
29431;DHT22;16404;49.902;10.074;2023-01-08T08:37:07;11.00;67.90
29431;DHT22;16404;49.902;10.074;2023-01-08T08:39:52;11.00;67.80
29431;DHT22;16404;49.902;10.074;2023-01-08T08:42:39;11.10;67.80
29431;DHT22;16404;49.902;10.074;2023-01-08T08:45:25;11.10;67.50
29431;DHT22;16404;49.902;10.074;2023-01-08T08:48:14;11.10;67.60
29431;DHT22;16404;49.902;10.074;2023-01-08T08:56:38;11.20;67.90
29431;DHT22;16404;49.902;10.074;2023-01-08T09:00:43;11.20;68.00
29431;DHT22;16404;49.902;10.074;2023-01-08T09:03:32;11.10;68.30
29431;DHT22;16404;49.902;10.074;2023-01-08T09:07:03;11.10;68.60
29431;DHT22;16404;49.902;10.074;2023-01-08T09:20:09;11.30;68.50
29431;DHT22;16404;49.902;10.074;2023-01-08T09:23:16;11.40;68.50
29431;DHT22;16404;49.902;10.074;2023-01-08T09:26:02;11.50;68.30
29431;DHT22;16404;49.902;10.074;2023-01-08T09:28:48;11.50;68.50
29431;DHT22;16404;49.902;10.074;2023-01-08T09:32:16;11.60;68.60
29431;DHT22;16404;49.902;10.074;2023-01-08T09:35:02;11.60;68.60
29431;DHT22;16404;49.902;10.074;2023-01-08T09:38:21;11.60;69.50
29431;DHT22;16404;49.902;10.074;2023-01-08T09:42:20;11.60;69.10
29431;DHT22;16404;49.902;10.074;2023-01-08T09:45:29;11.70;69.00
29431;DHT22;16404;49.902;10.074;2023-01-08T09:52:59;11.80;69.10
29431;DHT22;16404;49.902;10.074;2023-01-08T09:56:09;11.80;68.90
29431;DHT22;16404;49.902;10.074;2023-01-08T09:59:47;11.80;69.40
29431;DHT22;16404;49.902;10.074;2023-01-08T10:02:57;11.90;70.20
29431;DHT22;16404;49.902;10.074;2023-01-08T10:06:38;12.00;69.40
29431;DHT22;16404;49.902;10.074;2023-01-08T10:09:30;12.10;69.10
29431;DHT22;16404;49.902;10.074;2023-01-08T10:12:27;12.10;69.30
29431;DHT22;16404;49.902;10.074;2023-01-08T10:15:15;12.10;69.40
29431;DHT22;16404;49.902;10.074;2023-01-08T10:18:05;12.20;69.40
29431;DHT22;16404;49.902;10.074;2023-01-08T10:20:50;12.20;69.50
29431;DHT22;16404;49.902;10.074;2023-01-08T10:23:34;12.30;69.50
29431;DHT22;16404;49.902;10.074;2023-01-08T10:26:33;12.30;69.60
29431;DHT22;16404;49.902;10.074;2023-01-08T10:29:19;12.30;69.80
29431;DHT22;16404;49.902;10.074;2023-01-08T10:32:16;12.40;69.60
29431;DHT22;16404;49.902;10.074;2023-01-08T10:35:13;12.40;69.70
29431;DHT22;16404;49.902;10.074;2023-01-08T10:38:00;12.50;69.60
29431;DHT22;16404;49.902;10.074;2023-01-08T10:40:48;12.50;69.50
29431;DHT22;16404;49.902;10.074;2023-01-08T10:43:41;12.60;69.60
29431;DHT22;16404;49.902;10.074;2023-01-08T10:46:35;12.60;69.80
29431;DHT22;16404;49.902;10.074;2023-01-08T10:49:30;12.70;69.70
29431;DHT22;16404;49.902;10.074;2023-01-08T10:52:25;12.70;69.80
29431;DHT22;16404;49.902;10.074;2023-01-08T10:55:12;12.80;69.80
29431;DHT22;16404;49.902;10.074;2023-01-08T10:58:13;12.80;69.80
29431;DHT22;16404;49.902;10.074;2023-01-08T11:01:29;12.70;69.90
29431;DHT22;16404;49.902;10.074;2023-01-08T11:07:06;12.70;70.20
29431;DHT22;16404;49.902;10.074;2023-01-08T11:09:50;12.80;70.00
29431;DHT22;16404;49.902;10.074;2023-01-08T11:12:39;12.90;69.80
29431;DHT22;16404;49.902;10.074;2023-01-08T11:15:39;12.90;69.30
29431;DHT22;16404;49.902;10.074;2023-01-08T11:18:25;12.90;69.40
29431;DHT22;16404;49.902;10.074;2023-01-08T11:21:20;12.90;69.40
29431;DHT22;16404;49.902;10.074;2023-01-08T11:24:16;12.80;69.60
29431;DHT22;16404;49.902;10.074;2023-01-08T11:33:03;12.90;69.90
29431;DHT22;16404;49.902;10.074;2023-01-08T11:35:55;12.80;70.10
29431;DHT22;16404;49.902;10.074;2023-01-08T11:38:42;12.80;70.10
29431;DHT22;16404;49.902;10.074;2023-01-08T11:41:51;12.90;69.90
29431;DHT22;16404;49.902;10.074;2023-01-08T11:57:31;13.10;69.30
29431;DHT22;16404;49.902;10.074;2023-01-08T12:03:39;13.10;69.20
29431;DHT22;16404;49.902;10.074;2023-01-08T12:09:43;13.00;69.40
29431;DHT22;16404;49.902;10.074;2023-01-08T12:25:42;13.10;69.70
29431;DHT22;16404;49.902;10.074;2023-01-08T12:37:51;13.20;69.90
29431;DHT22;16404;49.902;10.074;2023-01-08T12:40:41;13.20;69.70
29431;DHT22;16404;49.902;10.074;2023-01-08T12:43:34;13.30;69.60
29431;DHT22;16404;49.902;10.074;2023-01-08T12:46:22;13.40;69.70
29431;DHT22;16404;49.902;10.074;2023-01-08T12:49:10;13.50;69.50
29431;DHT22;16404;49.902;10.074;2023-01-08T12:52:13;13.40;69.30
29431;DHT22;16404;49.902;10.074;2023-01-08T12:55:34;13.30;69.40
29431;DHT22;16404;49.902;10.074;2023-01-08T13:04:43;13.10;69.90
29431;DHT22;16404;49.902;10.074;2023-01-08T13:07:34;13.20;69.70
29431;DHT22;16404;49.902;10.074;2023-01-08T13:10:39;13.20;69.50
29431;DHT22;16404;49.902;10.074;2023-01-08T13:13:36;13.20;69.30
29431;DHT22;16404;49.902;10.074;2023-01-08T13:16:24;13.40;69.90
29431;DHT22;16404;49.902;10.074;2023-01-08T13:22:22;13.60;68.80
29431;DHT22;16404;49.902;10.074;2023-01-08T13:28:27;13.60;68.10
29431;DHT22;16404;49.902;10.074;2023-01-08T13:34:35;13.60;67.90
29431;DHT22;16404;49.902;10.074;2023-01-08T13:37:23;13.60;67.80
29431;DHT22;16404;49.902;10.074;2023-01-08T13:43:34;13.60;67.80
29431;DHT22;16404;49.902;10.074;2023-01-08T13:46:19;13.60;67.60
29431;DHT22;16404;49.902;10.074;2023-01-08T13:49:06;13.60;67.50
29431;DHT22;16404;49.902;10.074;2023-01-08T13:51:51;13.60;67.50
29431;DHT22;16404;49.902;10.074;2023-01-08T13:54:42;13.60;67.40
29431;DHT22;16404;49.902;10.074;2023-01-08T13:57:36;13.60;67.40
29431;DHT22;16404;49.902;10.074;2023-01-08T14:03:33;13.60;67.50
29431;DHT22;16404;49.902;10.074;2023-01-08T14:06:21;13.60;67.30
29431;DHT22;16404;49.902;10.074;2023-01-08T14:09:12;13.60;67.30
29431;DHT22;16404;49.902;10.074;2023-01-08T14:12:01;13.60;67.20
29431;DHT22;16404;49.902;10.074;2023-01-08T14:14:55;13.70;67.20
29431;DHT22;16404;49.902;10.074;2023-01-08T14:17:42;13.70;67.50
29431;DHT22;16404;49.902;10.074;2023-01-08T14:20:39;13.70;67.30
29431;DHT22;16404;49.902;10.074;2023-01-08T14:23:31;13.60;67.30
29431;DHT22;16404;49.902;10.074;2023-01-08T14:26:30;13.60;67.20
29431;DHT22;16404;49.902;10.074;2023-01-08T14:29:27;13.60;67.10
29431;DHT22;16404;49.902;10.074;2023-01-08T14:32:20;13.60;67.10
29431;DHT22;16404;49.902;10.074;2023-01-08T14:35:05;13.70;67.10
29431;DHT22;16404;49.902;10.074;2023-01-08T14:37:52;13.70;66.90
29431;DHT22;16404;49.902;10.074;2023-01-08T14:40:43;13.70;67.00
29431;DHT22;16404;49.902;10.074;2023-01-08T14:43:42;13.60;67.10
29431;DHT22;16404;49.902;10.074;2023-01-08T14:46:28;13.60;67.10
29431;DHT22;16404;49.902;10.074;2023-01-08T14:49:23;13.60;67.20
29431;DHT22;16404;49.902;10.074;2023-01-08T14:52:09;13.60;67.40
29431;DHT22;16404;49.902;10.074;2023-01-08T14:54:56;13.60;67.30
29431;DHT22;16404;49.902;10.074;2023-01-08T14:57:45;13.60;67.10
29431;DHT22;16404;49.902;10.074;2023-01-08T15:00:30;13.50;67.30
29431;DHT22;16404;49.902;10.074;2023-01-08T15:03:42;13.50;67.50
29431;DHT22;16404;49.902;10.074;2023-01-08T15:06:30;13.50;67.70
29431;DHT22;16404;49.902;10.074;2023-01-08T15:09:29;13.50;67.50
29431;DHT22;16404;49.902;10.074;2023-01-08T15:12:26;13.40;67.60
29431;DHT22;16404;49.902;10.074;2023-01-08T15:15:20;13.40;67.60
29431;DHT22;16404;49.902;10.074;2023-01-08T15:18:06;13.40;67.50
29431;DHT22;16404;49.902;10.074;2023-01-08T15:20:52;13.40;67.50
29431;DHT22;16404;49.902;10.074;2023-01-08T15:23:40;13.40;67.50
29431;DHT22;16404;49.902;10.074;2023-01-08T15:26:25;13.30;67.60
29431;DHT22;16404;49.902;10.074;2023-01-08T15:29:18;13.30;67.60
29431;DHT22;16404;49.902;10.074;2023-01-08T15:35:00;13.20;67.50
29431;DHT22;16404;49.902;10.074;2023-01-08T15:37:44;13.20;67.40
29431;DHT22;16404;49.902;10.074;2023-01-08T15:40:29;13.30;67.40
29431;DHT22;16404;49.902;10.074;2023-01-08T15:43:16;13.20;67.20
29431;DHT22;16404;49.902;10.074;2023-01-08T15:46:01;13.10;67.30
29431;DHT22;16404;49.902;10.074;2023-01-08T15:48:47;13.10;67.40
29431;DHT22;16404;49.902;10.074;2023-01-08T15:51:33;13.00;67.40
29431;DHT22;16404;49.902;10.074;2023-01-08T15:54:23;13.00;67.60
29431;DHT22;16404;49.902;10.074;2023-01-08T15:57:10;12.90;67.50
29431;DHT22;16404;49.902;10.074;2023-01-08T15:59:55;12.90;67.70
29431;DHT22;16404;49.902;10.074;2023-01-08T16:02:50;12.80;67.70
29431;DHT22;16404;49.902;10.074;2023-01-08T16:05:35;12.80;67.90
29431;DHT22;16404;49.902;10.074;2023-01-08T16:08:19;12.80;67.90
29431;DHT22;16404;49.902;10.074;2023-01-08T16:11:05;12.80;67.80
29431;DHT22;16404;49.902;10.074;2023-01-08T16:13:50;12.70;67.90
29431;DHT22;16404;49.902;10.074;2023-01-08T16:16:35;12.70;68.00
29431;DHT22;16404;49.902;10.074;2023-01-08T16:19:24;12.70;68.00
29431;DHT22;16404;49.902;10.074;2023-01-08T16:22:10;12.60;68.20
29431;DHT22;16404;49.902;10.074;2023-01-08T16:24:54;12.60;68.30
29431;DHT22;16404;49.902;10.074;2023-01-08T16:27:39;12.50;68.40
29431;DHT22;16404;49.902;10.074;2023-01-08T16:30:24;12.50;68.40
29431;DHT22;16404;49.902;10.074;2023-01-08T16:33:09;12.50;68.40
29431;DHT22;16404;49.902;10.074;2023-01-08T16:35:58;12.50;68.50
29431;DHT22;16404;49.902;10.074;2023-01-08T16:38:43;12.50;68.50
29431;DHT22;16404;49.902;10.074;2023-01-08T16:41:30;12.50;68.40
29431;DHT22;16404;49.902;10.074;2023-01-08T16:44:20;12.50;68.30
29431;DHT22;16404;49.902;10.074;2023-01-08T16:47:05;12.50;68.40
29431;DHT22;16404;49.902;10.074;2023-01-08T16:49:56;12.50;68.40
29431;DHT22;16404;49.902;10.074;2023-01-08T16:52:40;12.50;68.50
29431;DHT22;16404;49.902;10.074;2023-01-08T16:55:25;12.50;68.50
29431;DHT22;16404;49.902;10.074;2023-01-08T16:58:09;12.50;68.50
29431;DHT22;16404;49.902;10.074;2023-01-08T17:00:55;12.40;68.50
29431;DHT22;16404;49.902;10.074;2023-01-08T17:03:39;12.40;68.60
29431;DHT22;16404;49.902;10.074;2023-01-08T17:06:24;12.50;68.50
29431;DHT22;16404;49.902;10.074;2023-01-08T17:09:08;12.50;68.30
29431;DHT22;16404;49.902;10.074;2023-01-08T17:11:53;12.40;68.30
29431;DHT22;16404;49.902;10.074;2023-01-08T17:14:37;12.40;68.40
29431;DHT22;16404;49.902;10.074;2023-01-08T17:17:22;12.40;68.50
29431;DHT22;16404;49.902;10.074;2023-01-08T17:20:08;12.40;68.50
29431;DHT22;16404;49.902;10.074;2023-01-08T17:22:55;12.40;68.50
29431;DHT22;16404;49.902;10.074;2023-01-08T17:25:40;12.40;68.50
29431;DHT22;16404;49.902;10.074;2023-01-08T17:28:25;12.40;68.50
29431;DHT22;16404;49.902;10.074;2023-01-08T17:31:16;12.40;68.50
29431;DHT22;16404;49.902;10.074;2023-01-08T17:34:01;12.30;68.50
29431;DHT22;16404;49.902;10.074;2023-01-08T17:36:45;12.40;68.40
29431;DHT22;16404;49.902;10.074;2023-01-08T17:39:30;12.30;68.40
29431;DHT22;16404;49.902;10.074;2023-01-08T17:42:15;12.30;68.40
29431;DHT22;16404;49.902;10.074;2023-01-08T17:45:08;12.30;68.50
29431;DHT22;16404;49.902;10.074;2023-01-08T17:47:53;12.20;68.40
29431;DHT22;16404;49.902;10.074;2023-01-08T17:50:38;12.20;68.40
29431;DHT22;16404;49.902;10.074;2023-01-08T17:53:23;12.10;68.40
29431;DHT22;16404;49.902;10.074;2023-01-08T17:56:07;12.20;68.30
29431;DHT22;16404;49.902;10.074;2023-01-08T17:58:52;12.20;68.00
29431;DHT22;16404;49.902;10.074;2023-01-08T18:01:36;12.10;68.10
29431;DHT22;16404;49.902;10.074;2023-01-08T18:04:21;12.10;68.30
29431;DHT22;16404;49.902;10.074;2023-01-08T18:07:06;12.00;68.30
29431;DHT22;16404;49.902;10.074;2023-01-08T18:09:50;12.00;68.10
29431;DHT22;16404;49.902;10.074;2023-01-08T18:12:37;12.00;68.10
29431;DHT22;16404;49.902;10.074;2023-01-08T18:15:21;12.00;68.00
29431;DHT22;16404;49.902;10.074;2023-01-08T18:18:06;12.00;68.00
29431;DHT22;16404;49.902;10.074;2023-01-08T18:20:54;12.00;68.10
29431;DHT22;16404;49.902;10.074;2023-01-08T18:23:41;11.90;67.90
29431;DHT22;16404;49.902;10.074;2023-01-08T18:26:27;11.90;68.00
29431;DHT22;16404;49.902;10.074;2023-01-08T18:29:13;11.90;68.60
29431;DHT22;16404;49.902;10.074;2023-01-08T18:31:58;11.90;67.80
29431;DHT22;16404;49.902;10.074;2023-01-08T18:34:42;11.80;67.70
29431;DHT22;16404;49.902;10.074;2023-01-08T18:37:27;11.80;67.70
29431;DHT22;16404;49.902;10.074;2023-01-08T18:40:12;11.70;67.60
29431;DHT22;16404;49.902;10.074;2023-01-08T18:42:59;11.70;67.70
29431;DHT22;16404;49.902;10.074;2023-01-08T18:45:44;11.70;67.70
29431;DHT22;16404;49.902;10.074;2023-01-08T18:48:28;11.60;67.80
29431;DHT22;16404;49.902;10.074;2023-01-08T18:51:13;11.60;68.00
29431;DHT22;16404;49.902;10.074;2023-01-08T18:53:58;11.50;68.20
29431;DHT22;16404;49.902;10.074;2023-01-08T18:56:42;11.50;68.30
29431;DHT22;16404;49.902;10.074;2023-01-08T18:59:27;11.50;68.40
29431;DHT22;16404;49.902;10.074;2023-01-08T19:02:23;11.50;68.50
29431;DHT22;16404;49.902;10.074;2023-01-08T19:05:10;11.40;68.60
29431;DHT22;16404;49.902;10.074;2023-01-08T19:07:54;11.50;68.50
29431;DHT22;16404;49.902;10.074;2023-01-08T19:10:39;11.50;68.60
29431;DHT22;16404;49.902;10.074;2023-01-08T19:13:23;11.50;68.60
29431;DHT22;16404;49.902;10.074;2023-01-08T19:16:11;11.50;68.50
29431;DHT22;16404;49.902;10.074;2023-01-08T19:18:55;11.50;68.50